Time;durP1;ratioP1;P1;durP2;ratioP2;P2;SDS_P1;SDS_P2;PMS_P1;PMS_P2;Temp;Humidity;BMP_temperature;BMP_pressure;BME280_temperature;BME280_humidity;BME280_pressure;Samples;Min_cycle;Max_cycle;Signal;HPM_P1;HPM_P2
2021/10/26 04:52:37;;;;;;;51.78;35.45;;;;;;;;;;5317009;22;20088;-89
2021/10/26 04:55:23;;;;;;;55.42;36.92;;;;;;;;;;5051758;28;20048;-91
2021/10/26 04:58:13;;;;;;;57.90;38.40;;;;;;;;;;5039096;28;20053;-90
2021/10/26 05:01:04;;;;;;;49.70;33.75;;;;;;;;;;5066152;28;20021;-91
2021/10/26 05:03:52;;;;;;;46.83;32.72;;;;;;;;;;5081977;28;20055;-89
2021/10/26 05:06:35;;;;;;;53.38;35.35;;;;;;;;;;5073127;28;20034;-90
2021/10/26 05:09:32;;;;;;;47.35;32.78;;;;;;;;;;5057917;28;20090;-91
2021/10/26 05:12:19;;;;;;;45.55;32.78;;;;;;;;;;5050971;28;20507;-90
2021/10/26 05:15:06;;;;;;;43.38;31.55;;;;;;;;;;5041157;28;20297;-90
2021/10/26 05:18:00;;;;;;;46.63;33.90;;;;;;;;;;5044550;28;20076;-91
2021/10/26 05:24:16;;;;;;;62.70;39.28;;;;;;;;;;5055032;28;20052;-90
2021/10/26 05:27:02;;;;;;;63.20;41.42;;;;;;;;;;5067729;28;20651;-91
2021/10/26 05:29:55;;;;;;;62.95;36.42;;;;;;;;;;5056906;28;20124;-91
2021/10/26 05:32:36;;;;;;;61.63;37.72;;;;;;;;;;5051979;28;20053;-91
2021/10/26 05:38:05;;;;;;;53.43;35.80;;;;;;;;;;5040387;28;20367;-91
2021/10/26 05:40:48;;;;;;;44.03;31.73;;;;;;;;;;5036514;28;20295;-89
2021/10/26 05:43:47;;;;;;;43.67;31.33;;;;;;;;;;5052162;28;20041;-90
2021/10/26 05:46:36;;;;;;;47.05;32.13;;;;;;;;;;5050675;28;20374;-90
2021/10/26 05:49:15;;;;;;;47.28;32.00;;;;;;;;;;5051409;28;20041;-91
2021/10/26 05:51:57;;;;;;;47.75;32.00;;;;;;;;;;5046626;28;20059;-90
2021/10/26 05:54:36;;;;;;;46.47;34.25;;;;;;;;;;5054200;28;20067;-91
2021/10/26 05:57:16;;;;;;;49.20;33.58;;;;;;;;;;5073428;28;20021;-91
2021/10/26 05:59:55;;;;;;;52.97;34.10;;;;;;;;;;5074105;28;20025;-90
2021/10/26 06:02:50;;;;;;;53.42;35.35;;;;;;;;;;5055542;28;20228;-90
2021/10/26 06:05:32;;;;;;;52.88;37.00;;;;;;;;;;5071438;28;20071;-91
2021/10/26 06:08:21;;;;;;;49.30;34.63;;;;;;;;;;5056795;28;20131;-91
2021/10/26 06:11:11;;;;;;;46.10;33.08;;;;;;;;;;5068579;28;20045;-91
2021/10/26 06:14:00;;;;;;;43.38;32.97;;;;;;;;;;5081287;28;20033;-91
2021/10/26 06:16:41;;;;;;;45.28;32.50;;;;;;;;;;5064777;28;20032;-91
2021/10/26 06:19:25;;;;;;;49.47;32.25;;;;;;;;;;5090546;28;20062;-90
2021/10/26 06:22:10;;;;;;;46.90;32.53;;;;;;;;;;5070865;28;20036;-90
2021/10/26 06:24:50;;;;;;;47.63;33.15;;;;;;;;;;5061345;28;20117;-90
2021/10/26 06:27:30;;;;;;;50.25;32.70;;;;;;;;;;5055755;28;20055;-90
2021/10/26 06:30:11;;;;;;;51.90;32.63;;;;;;;;;;5071533;28;20041;-90
2021/10/26 06:32:56;;;;;;;46.22;31.63;;;;;;;;;;5053945;28;20069;-90
2021/10/26 06:36:15;;;;;;;;;;;;;;;;;;;;;
2021/10/26 06:39:06;;;;;;;42.83;31.90;;;;;;;;;;5064874;28;20041;-90
2021/10/26 06:41:46;;;;;;;50.53;35.15;;;;;;;;;;5049643;28;20125;-89
2021/10/26 06:44:43;;;;;;;50.83;32.65;;;;;;;;;;5037617;28;20041;-91
2021/10/26 06:47:40;;;;;;;46.00;32.28;;;;;;;;;;5052519;28;20056;-91
2021/10/26 06:50:36;;;;;;;44.95;30.83;;;;;;;;;;5051564;28;20099;-90
2021/10/26 06:56:44;;;;;;;41.90;30.10;;;;;;;;;;5049040;28;20067;-90
2021/10/26 07:00:25;;;;;;;43.92;29.08;;;;;;;;;;5040519;28;20055;-90
2021/10/26 07:03:24;;;;;;;37.65;27.40;;;;;;;;;;5045579;28;20048;-91
2021/10/26 07:06:45;;;;;;;39.00;28.80;;;;;;;;;;4991475;28;20046;-90
2021/10/26 07:10:05;;;;;;;;;;;;;;;;;;;;;
2021/10/26 07:12:57;;;;;;;38.65;25.83;;;;;;;;;;4996673;28;20054;-88
2021/10/26 07:25:27;;;;;;;32.60;25.17;;;;;;;;;;5645460;22;20068;-91
2021/10/26 07:31:27;;;;;;;39.85;26.58;;;;;;;;;;5024081;28;20059;-92
2021/10/26 07:33:58;;;;;;;38.00;25.02;;;;;;;;;;5032718;28;20036;-89
2021/10/26 07:36:28;;;;;;;31.38;24.48;;;;;;;;;;5051277;28;20036;-91
2021/10/26 07:38:59;;;;;;;26.95;21.15;;;;;;;;;;5030809;28;20037;-90
2021/10/26 07:41:27;;;;;;;30.70;19.52;;;;;;;;;;5034703;28;20076;-91
2021/10/26 07:47:53;;;;;;;24.17;17.10;;;;;;;;;;5055701;28;20473;-89
2021/10/26 07:50:25;;;;;;;25.20;18.38;;;;;;;;;;5030910;28;20041;-90
2021/10/26 07:52:53;;;;;;;23.85;18.27;;;;;;;;;;5034403;28;20682;-89
2021/10/26 07:55:23;;;;;;;24.85;18.00;;;;;;;;;;5052301;28;20092;-89
2021/10/26 07:57:59;;;;;;;25.83;18.20;;;;;;;;;;5037256;28;20051;-89
2021/10/26 08:00:40;;;;;;;26.67;19.98;;;;;;;;;;5113529;23;20072;-89
2021/10/26 08:07:32;;;;;;;25.35;18.90;;;;;;;;;;5002798;28;20066;-91
2021/10/26 08:10:00;;;;;;;29.13;19.63;;;;;;;;;;4978399;28;20136;-88
2021/10/26 08:12:39;;;;;;;25.95;19.30;;;;;;;;;;5034275;28;20057;-89
2021/10/26 08:15:45;;;;;;;;;;;;;;;;;;;;;
2021/10/26 08:18:38;;;;;;;29.58;20.30;;;;;;;;;;5038773;28;20049;-89
2021/10/26 08:21:06;;;;;;;31.02;21.65;;;;;;;;;;5032772;28;20041;-89
2021/10/26 08:26:26;;;;;;;;;;;;;;;;;;5013750;28;20042;-85
2021/10/26 08:29:08;;;;;;;25.60;19.05;;;;;;;;;;5017683;28;20285;-86
2021/10/26 08:31:45;;;;;;;24.85;18.65;;;;;;;;;;4991966;28;20610;-86
2021/10/26 08:34:18;;;;;;;23.83;18.80;;;;;;;;;;4987743;28;20061;-87
2021/10/26 08:36:47;;;;;;;28.80;18.45;;;;;;;;;;5000046;28;20046;-86
2021/10/26 08:39:15;;;;;;;25.00;18.45;;;;;;;;;;4988576;28;20400;-88
2021/10/26 08:41:47;;;;;;;26.23;16.95;;;;;;;;;;4988219;28;20038;-86
2021/10/26 08:44:18;;;;;;;27.38;16.27;;;;;;;;;;4985179;28;20046;-87
2021/10/26 08:46:46;;;;;;;22.10;16.90;;;;;;;;;;5018007;28;20106;-86
2021/10/26 08:49:14;;;;;;;20.02;15.65;;;;;;;;;;4997713;28;20668;-86
2021/10/26 08:52:04;;;;;;;23.98;16.15;;;;;;;;;;4987454;28;20054;-87
2021/10/26 08:57:49;;;;;;;19.88;14.85;;;;;;;;;;4983469;28;20579;-86
2021/10/26 09:00:44;;;;;;;16.88;12.32;;;;;;;;;;4981661;28;20043;-85
2021/10/26 09:03:18;;;;;;;16.45;11.48;;;;;;;;;;4981473;28;20046;-86
2021/10/26 09:05:48;;;;;;;16.17;11.20;;;;;;;;;;5005960;28;20045;-87
2021/10/26 09:08:19;;;;;;;14.38;11.10;;;;;;;;;;4990997;28;20848;-87
2021/10/26 09:10:48;;;;;;;13.88;11.48;;;;;;;;;;4991351;28;20128;-86
2021/10/26 09:16:41;;;;;;;13.32;10.30;;;;;;;;;;4990805;28;20305;-86
2021/10/26 09:19:28;;;;;;;14.80;10.25;;;;;;;;;;4993989;28;20057;-85
2021/10/26 09:22:02;;;;;;;15.05;10.13;;;;;;;;;;4992674;28;20060;-86
2021/10/26 09:24:30;;;;;;;10.93;8.60;;;;;;;;;;4999352;28;20065;-87
2021/10/26 09:27:00;;;;;;;16.20;9.27;;;;;;;;;;4997281;28;20159;-87
2021/10/26 09:29:42;;;;;;;13.27;8.43;;;;;;;;;;4996814;28;20077;-87
2021/10/26 09:35:30;;;;;;;8.00;6.57;;;;;;;;;;4992009;28;20053;-88
2021/10/26 09:37:58;;;;;;;13.75;7.10;;;;;;;;;;4995436;28;20089;-88
2021/10/26 09:40:38;;;;;;;11.30;7.72;;;;;;;;;;4999245;28;20072;-89
2021/10/26 09:43:31;;;;;;;6.93;5.95;;;;;;;;;;5000831;28;20129;-88
2021/10/26 09:46:12;;;;;;;10.25;6.43;;;;;;;;;;5018931;28;20064;-90
2021/10/26 09:48:41;;;;;;;7.90;5.97;;;;;;;;;;5017958;28;20031;-88
2021/10/26 09:51:09;;;;;;;4.55;3.50;;;;;;;;;;5018918;28;20050;-88
2021/10/26 09:59:16;;;;;;;4.43;1.88;;;;;;;;;;4982577;28;20137;-86
2021/10/26 10:01:57;;;;;;;4.70;1.60;;;;;;;;;;4991261;28;20480;-88
2021/10/26 10:10:48;;;;;;;4.35;1.58;;;;;;;;;;5088362;22;20049;-88
2021/10/26 10:13:50;;;;;;;1.83;1.08;;;;;;;;;;5040885;28;20128;-87
2021/10/26 10:16:25;;;;;;;4.10;1.90;;;;;;;;;;5045690;28;20157;-87
2021/10/26 10:18:58;;;;;;;4.32;1.38;;;;;;;;;;5030310;28;20116;-88
2021/10/26 10:21:29;;;;;;;3.63;1.80;;;;;;;;;;5018181;28;20072;-86
2021/10/26 10:23:59;;;;;;;2.83;1.30;;;;;;;;;;5026481;28;20037;-87
2021/10/26 10:26:28;;;;;;;2.22;1.30;;;;;;;;;;5050240;28;20088;-85
2021/10/26 10:28:57;;;;;;;3.63;1.27;;;;;;;;;;5044392;28;20041;-86
2021/10/26 10:31:26;;;;;;;3.35;1.75;;;;;;;;;;5030609;28;20037;-82
2021/10/26 10:33:54;;;;;;;3.42;1.60;;;;;;;;;;5026079;28;20050;-84
2021/10/26 10:36:22;;;;;;;3.78;1.40;;;;;;;;;;5041891;28;20049;-84
2021/10/26 10:38:51;;;;;;;3.92;1.58;;;;;;;;;;5031147;28;20088;-85
2021/10/26 10:41:23;;;;;;;2.92;1.55;;;;;;;;;;5018052;28;20099;-85
2021/10/26 10:43:51;;;;;;;7.43;1.48;;;;;;;;;;5031416;28;20073;-86
2021/10/26 10:46:33;;;;;;;3.45;1.67;;;;;;;;;;5013303;28;20128;-86
2021/10/26 10:49:24;;;;;;;2.13;1.30;;;;;;;;;;5031647;28;20046;-85
2021/10/26 10:51:55;;;;;;;4.65;1.98;;;;;;;;;;5015249;28;20061;-86
2021/10/26 10:54:44;;;;;;;7.47;2.47;;;;;;;;;;5016268;28;20064;-85
2021/10/26 10:57:11;;;;;;;;;;;;;;;;;;5018474;28;20045;-85
2021/10/26 10:59:43;;;;;;;5.83;3.07;;;;;;;;;;5014354;28;19992;-86
2021/10/26 11:02:19;;;;;;;5.75;2.40;;;;;;;;;;5042571;28;20315;-86
2021/10/26 11:04:47;;;;;;;3.05;1.98;;;;;;;;;;5050015;28;20069;-86
2021/10/26 11:07:14;;;;;;;3.05;1.20;;;;;;;;;;5026516;28;20042;-85
2021/10/26 11:09:44;;;;;;;2.25;1.40;;;;;;;;;;5025015;28;20060;-85
2021/10/26 11:12:15;;;;;;;4.95;1.50;;;;;;;;;;5010058;28;20127;-85
2021/10/26 11:14:43;;;;;;;3.88;1.67;;;;;;;;;;5006541;28;20129;-85
2021/10/26 11:17:29;;;;;;;3.58;2.10;;;;;;;;;;5021815;28;20041;-85
2021/10/26 11:19:57;;;;;;;3.90;1.85;;;;;;;;;;5012141;28;20053;-86
2021/10/26 11:22:43;;;;;;;2.55;1.55;;;;;;;;;;5024070;28;20034;-86
2021/10/26 11:25:23;;;;;;;3.63;2.20;;;;;;;;;;5007542;28;20052;-85
2021/10/26 11:27:51;;;;;;;5.95;1.90;;;;;;;;;;5024136;28;20052;-86
2021/10/26 11:30:42;;;;;;;4.05;1.70;;;;;;;;;;5028736;28;20172;-86
2021/10/26 11:33:24;;;;;;;3.05;1.55;;;;;;;;;;5013895;28;20047;-85
2021/10/26 11:35:52;;;;;;;3.10;1.30;;;;;;;;;;5027391;28;20107;-85
2021/10/26 11:38:20;;;;;;;1.30;1.10;;;;;;;;;;5011964;28;20045;-86
2021/10/26 11:40:52;;;;;;;5.05;1.70;;;;;;;;;;5026658;28;20467;-86
2021/10/26 11:43:20;;;;;;;4.70;1.55;;;;;;;;;;5024016;28;20049;-86
2021/10/26 11:45:54;;;;;;;5.43;1.42;;;;;;;;;;5032270;28;20059;-86
2021/10/26 11:48:38;;;;;;;3.33;1.65;;;;;;;;;;5014386;28;20048;-85
2021/10/26 11:51:21;;;;;;;3.08;1.30;;;;;;;;;;5022674;28;20107;-87
2021/10/26 11:53:50;;;;;;;3.92;1.25;;;;;;;;;;5012187;28;20041;-86
2021/10/26 11:56:26;;;;;;;1.92;1.20;;;;;;;;;;5010988;28;20048;-85
2021/10/26 11:59:01;;;;;;;2.70;1.40;;;;;;;;;;5028792;28;20047;-85
2021/10/26 12:01:36;;;;;;;2.30;0.80;;;;;;;;;;5009029;28;20045;-85
2021/10/26 12:04:05;;;;;;;2.47;0.75;;;;;;;;;;5033142;28;20045;-85
2021/10/26 12:06:33;;;;;;;3.20;1.00;;;;;;;;;;5025781;28;20084;-87
2021/10/26 12:09:01;;;;;;;2.42;1.20;;;;;;;;;;5010099;28;20045;-83
2021/10/26 12:11:32;;;;;;;2.15;1.10;;;;;;;;;;5025085;28;20080;-82
2021/10/26 12:14:12;;;;;;;2.38;1.10;;;;;;;;;;5025753;28;20053;-84
2021/10/26 12:16:41;;;;;;;1.83;0.90;;;;;;;;;;5044478;28;20088;-84
2021/10/26 12:19:08;;;;;;;3.15;1.00;;;;;;;;;;5032191;28;20038;-86
2021/10/26 12:21:36;;;;;;;3.28;1.02;;;;;;;;;;5034441;28;20037;-84
2021/10/26 12:24:04;;;;;;;2.88;1.50;;;;;;;;;;5044211;28;20068;-84
2021/10/26 12:26:33;;;;;;;2.42;1.10;;;;;;;;;;5047025;28;20061;-84
2021/10/26 12:29:00;;;;;;;1.30;1.13;;;;;;;;;;5049951;28;20076;-83
2021/10/26 12:31:30;;;;;;;2.22;1.10;;;;;;;;;;5049939;28;20103;-82
2021/10/26 12:34:01;;;;;;;2.65;1.20;;;;;;;;;;5044858;28;20051;-83
2021/10/26 12:36:29;;;;;;;1.70;1.20;;;;;;;;;;5033120;28;20069;-83
2021/10/26 12:39:05;;;;;;;3.17;1.50;;;;;;;;;;5018717;28;20050;-82
2021/10/26 12:41:39;;;;;;;2.95;1.50;;;;;;;;;;5030842;28;20341;-84
2021/10/26 12:44:12;;;;;;;2.53;1.30;;;;;;;;;;5047304;28;20125;-83
2021/10/26 12:46:40;;;;;;;3.35;0.77;;;;;;;;;;5021368;28;20045;-83
2021/10/26 12:49:09;;;;;;;1.58;1.00;;;;;;;;;;5029746;28;20406;-83
2021/10/26 12:51:37;;;;;;;1.50;1.20;;;;;;;;;;5030144;28;20044;-83
2021/10/26 12:54:12;;;;;;;1.90;1.20;;;;;;;;;;5028377;28;20116;-83
2021/10/26 12:56:47;;;;;;;2.40;0.90;;;;;;;;;;5028650;28;20299;-82
2021/10/26 12:59:16;;;;;;;1.25;0.75;;;;;;;;;;5029737;28;20042;-81
2021/10/26 13:01:46;;;;;;;1.35;0.90;;;;;;;;;;5031189;28;20049;-81
2021/10/26 13:04:21;;;;;;;3.38;1.13;;;;;;;;;;5031363;28;20037;-81
2021/10/26 13:06:49;;;;;;;1.95;1.00;;;;;;;;;;5032376;28;20029;-82
2021/10/26 13:09:35;;;;;;;2.75;1.27;;;;;;;;;;5033032;28;20036;-80
2021/10/26 13:12:09;;;;;;;4.00;1.02;;;;;;;;;;5029118;28;20483;-82
2021/10/26 13:14:42;;;;;;;4.10;1.65;;;;;;;;;;5030168;28;20121;-81
2021/10/26 13:17:28;;;;;;;7.32;1.50;;;;;;;;;;5030158;28;20405;-81
2021/10/26 13:20:17;;;;;;;1.98;1.00;;;;;;;;;;5022474;28;20049;-81
2021/10/26 13:22:55;;;;;;;1.90;1.00;;;;;;;;;;5010953;28;20045;-82
2021/10/26 13:25:22;;;;;;;2.30;1.08;;;;;;;;;;5026899;28;20380;-80
2021/10/26 13:27:51;;;;;;;3.75;1.40;;;;;;;;;;5027404;28;20029;-81
2021/10/26 13:30:19;;;;;;;1.77;1.20;;;;;;;;;;5027680;28;20124;-81
2021/10/26 13:32:46;;;;;;;4.15;1.20;;;;;;;;;;5029960;28;20080;-81
2021/10/26 13:35:14;;;;;;;2.92;0.98;;;;;;;;;;5030300;28;20127;-81
2021/10/26 13:37:41;;;;;;;1.90;1.50;;;;;;;;;;5032048;28;20060;-80
2021/10/26 13:40:09;;;;;;;1.50;1.15;;;;;;;;;;5031542;28;20408;-82
2021/10/26 13:42:36;;;;;;;2.60;1.20;;;;;;;;;;5013919;28;20495;-81
2021/10/26 13:45:06;;;;;;;3.85;0.85;;;;;;;;;;5011658;28;20768;-81
2021/10/26 13:47:40;;;;;;;1.95;0.93;;;;;;;;;;5030214;28;20038;-81
2021/10/26 13:50:09;;;;;;;2.40;2.20;;;;;;;;;;5029632;28;20434;-81
2021/10/26 13:52:38;;;;;;;1.75;1.30;;;;;;;;;;5028447;28;20088;-81
2021/10/26 13:55:06;;;;;;;3.17;1.00;;;;;;;;;;5012578;28;20502;-81
2021/10/26 13:57:33;;;;;;;2.65;1.17;;;;;;;;;;5022814;28;20038;-81
2021/10/26 14:00:07;;;;;;;1.80;0.90;;;;;;;;;;5023428;28;20109;-81
2021/10/26 14:02:42;;;;;;;5.57;1.40;;;;;;;;;;5028757;28;20111;-82
2021/10/26 14:05:10;;;;;;;2.50;1.45;;;;;;;;;;5037653;28;20275;-81
2021/10/26 14:07:38;;;;;;;6.40;1.42;;;;;;;;;;5053526;28;20029;-81
2021/10/26 14:10:06;;;;;;;1.10;0.95;;;;;;;;;;5054218;28;20037;-84
2021/10/26 14:12:34;;;;;;;1.67;1.05;;;;;;;;;;5034901;28;20042;-83
2021/10/26 14:15:01;;;;;;;4.30;1.50;;;;;;;;;;5028144;28;20064;-82
2021/10/26 14:17:28;;;;;;;1.73;1.30;;;;;;;;;;5029262;28;20041;-83
2021/10/26 14:19:58;;;;;;;13.68;11.93;;;;;;;;;;5031823;28;20147;-83
2021/10/26 14:22:25;;;;;;;11.38;10.18;;;;;;;;;;5019678;28;20044;-83
2021/10/26 14:24:53;;;;;;;3.25;2.40;;;;;;;;;;5013177;28;20056;-82
2021/10/26 14:27:20;;;;;;;4.20;3.67;;;;;;;;;;5028299;28;20049;-83
2021/10/26 14:29:48;;;;;;;5.30;3.28;;;;;;;;;;5029544;28;20577;-82
2021/10/26 14:32:19;;;;;;;5.88;2.35;;;;;;;;;;5029170;28;20075;-83
2021/10/26 14:34:49;;;;;;;4.57;3.47;;;;;;;;;;5029042;28;20050;-82
2021/10/26 14:37:19;;;;;;;3.88;2.97;;;;;;;;;;5025279;28;20048;-83
2021/10/26 14:53:44;;;;;;;3.38;1.67;;;;;;;;;;5020812;28;20045;-83
2021/10/26 14:56:12;;;;;;;2.60;1.52;;;;;;;;;;4999242;28;20044;-82
2021/10/26 14:58:40;;;;;;;2.72;1.30;;;;;;;;;;5027661;28;20049;-81
2021/10/26 15:01:08;;;;;;;1.20;0.80;;;;;;;;;;5026423;28;20041;-83
2021/10/26 15:03:36;;;;;;;1.58;1.27;;;;;;;;;;5008090;28;20038;-83
2021/10/26 15:06:05;;;;;;;4.15;1.40;;;;;;;;;;5026031;28;20053;-83
2021/10/26 15:08:41;;;;;;;4.38;1.23;;;;;;;;;;5030559;28;20473;-83
2021/10/26 15:11:15;;;;;;;5.00;1.20;;;;;;;;;;5028411;28;20059;-82
2021/10/26 15:13:44;;;;;;;5.18;1.15;;;;;;;;;;5027875;28;20037;-82
2021/10/26 15:16:13;;;;;;;4.47;1.33;;;;;;;;;;5029352;28;20040;-83
2021/10/26 15:18:41;;;;;;;3.90;1.02;;;;;;;;;;5009448;28;20049;-82
2021/10/26 15:21:11;;;;;;;2.35;1.20;;;;;;;;;;5029398;28;20056;-82
2021/10/26 15:23:56;;;;;;;2.55;1.30;;;;;;;;;;5028225;28;20107;-83
2021/10/26 15:34:35;;;;;;;4.18;1.83;;;;;;;;;;5020752;28;20492;-83
2021/10/26 15:37:02;;;;;;;4.43;1.75;;;;;;;;;;5040903;28;20045;-85
2021/10/26 15:39:31;;;;;;;1.90;1.67;;;;;;;;;;5026747;28;20045;-86
2021/10/26 15:41:59;;;;;;;4.18;1.42;;;;;;;;;;5014759;28;20202;-85
2021/10/26 15:44:26;;;;;;;2.20;1.65;;;;;;;;;;5034398;28;20388;-84
2021/10/26 15:46:54;;;;;;;3.80;1.27;;;;;;;;;;5042392;28;20045;-85
2021/10/26 15:49:21;;;;;;;4.10;1.73;;;;;;;;;;5027538;28;20127;-85
2021/10/26 15:51:49;;;;;;;10.10;2.20;;;;;;;;;;5028095;28;20115;-84
2021/10/26 15:54:27;;;;;;;7.63;4.32;;;;;;;;;;5023834;28;20069;-85
2021/10/26 15:56:56;;;;;;;5.40;2.58;;;;;;;;;;5025451;28;20036;-83
2021/10/26 15:59:23;;;;;;;9.43;4.68;;;;;;;;;;5029374;28;20080;-82
2021/10/26 16:01:55;;;;;;;10.48;4.57;;;;;;;;;;5004422;28;20042;-82
2021/10/26 16:04:24;;;;;;;4.63;3.55;;;;;;;;;;5029035;28;20287;-83
2021/10/26 16:06:51;;;;;;;5.80;2.80;;;;;;;;;;5030379;28;20128;-84
2021/10/26 16:09:22;;;;;;;5.53;2.33;;;;;;;;;;5011293;28;20067;-83
2021/10/26 16:11:53;;;;;;;8.98;4.95;;;;;;;;;;5029595;28;20402;-84
2021/10/26 16:14:25;;;;;;;12.02;8.07;;;;;;;;;;5028067;28;20041;-85
2021/10/26 16:16:52;;;;;;;8.57;4.63;;;;;;;;;;5031409;28;20045;-84
2021/10/26 16:19:19;;;;;;;5.65;3.53;;;;;;;;;;5029093;28;20080;-84
2021/10/26 16:21:47;;;;;;;6.10;2.47;;;;;;;;;;5029815;28;20065;-84
2021/10/26 16:24:15;;;;;;;5.60;3.47;;;;;;;;;;5030375;28;20422;-84
2021/10/26 16:26:43;;;;;;;7.43;4.75;;;;;;;;;;5030968;28;20136;-84
2021/10/26 16:29:11;;;;;;;10.98;8.35;;;;;;;;;;5033113;28;20048;-85
2021/10/26 16:31:40;;;;;;;12.40;9.20;;;;;;;;;;5041304;28;20462;-84
2021/10/26 16:34:08;;;;;;;17.92;11.40;;;;;;;;;;5048652;28;20056;-85
2021/10/26 16:36:37;;;;;;;19.00;14.73;;;;;;;;;;5039530;28;20124;-83
2021/10/26 16:39:06;;;;;;;19.65;13.50;;;;;;;;;;5034454;28;20050;-83
2021/10/26 16:41:33;;;;;;;24.67;15.40;;;;;;;;;;5028211;28;20548;-83
2021/10/26 16:44:06;;;;;;;15.43;10.77;;;;;;;;;;5029128;28;20147;-83
2021/10/26 16:46:41;;;;;;;15.45;10.00;;;;;;;;;;5028948;28;20042;-83
2021/10/26 16:49:10;;;;;;;11.95;7.80;;;;;;;;;;5028969;28;20048;-84
2021/10/26 16:55:09;;;;;;;26.77;18.00;;;;;;;;;;5031416;28;20095;-90
2021/10/26 16:57:37;;;;;;;30.40;18.10;;;;;;;;;;5029579;28;20532;-85
2021/10/26 17:00:06;;;;;;;27.15;17.10;;;;;;;;;;5030315;28;20068;-86
2021/10/26 17:02:35;;;;;;;28.55;15.27;;;;;;;;;;5031206;28;20050;-85
2021/10/26 17:05:05;;;;;;;20.83;13.35;;;;;;;;;;5052054;28;20052;-82
2021/10/26 17:07:34;;;;;;;20.83;13.30;;;;;;;;;;5038803;28;20045;-83
2021/10/26 17:10:01;;;;;;;17.67;13.10;;;;;;;;;;5044919;28;20029;-82
2021/10/26 17:12:30;;;;;;;14.93;7.97;;;;;;;;;;5031072;28;20046;-81
2021/10/26 17:15:00;;;;;;;13.95;8.68;;;;;;;;;;4999389;28;20046;-82
2021/10/26 17:17:28;;;;;;;12.88;7.53;;;;;;;;;;5016498;28;20559;-82
2021/10/26 17:19:55;;;;;;;13.75;8.88;;;;;;;;;;5008498;28;20131;-82
2021/10/26 17:22:24;;;;;;;14.23;9.02;;;;;;;;;;5008020;28;20097;-82
2021/10/26 17:24:53;;;;;;;13.85;8.93;;;;;;;;;;5008411;28;20046;-82
2021/10/26 17:27:20;;;;;;;18.55;11.43;;;;;;;;;;5008485;28;20038;-82
2021/10/26 17:29:47;;;;;;;30.35;19.00;;;;;;;;;;5018175;28;20191;-81
2021/10/26 17:32:15;;;;;;;26.55;18.15;;;;;;;;;;4997132;28;20045;-83
2021/10/26 17:34:43;;;;;;;48.83;27.98;;;;;;;;;;5016527;28;20042;-83
2021/10/26 17:37:11;;;;;;;53.28;28.25;;;;;;;;;;5009845;28;20124;-85
2021/10/26 17:39:42;;;;;;;61.92;32.83;;;;;;;;;;5009838;28;20041;-85
2021/10/26 17:42:09;;;;;;;30.42;17.90;;;;;;;;;;5018459;28;20056;-84
2021/10/26 17:44:44;;;;;;;31.95;17.42;;;;;;;;;;5017504;28;20101;-87
2021/10/26 17:47:11;;;;;;;81.65;33.45;;;;;;;;;;5013033;28;20065;-88
2021/10/26 17:52:37;;;;;;;108.90;43.92;;;;;;;;;;4994092;28;20077;-88
2021/10/26 17:55:08;;;;;;;73.55;32.17;;;;;;;;;;4994093;28;20058;-86
2021/10/26 17:57:38;;;;;;;33.00;14.85;;;;;;;;;;4992679;28;20042;-88
2021/10/26 18:00:06;;;;;;;67.95;29.95;;;;;;;;;;4996723;28;20038;-85
2021/10/26 18:02:40;;;;;;;31.25;16.55;;;;;;;;;;4991310;28;20043;-84
2021/10/26 18:05:08;;;;;;;14.23;9.55;;;;;;;;;;4990653;28;20175;-83
2021/10/26 18:07:35;;;;;;;11.82;8.27;;;;;;;;;;4990531;28;20129;-85
2021/10/26 18:10:03;;;;;;;14.73;8.45;;;;;;;;;;5011228;28;20112;-85
2021/10/26 18:12:32;;;;;;;12.73;7.18;;;;;;;;;;4990539;28;20117;-83
2021/10/26 18:14:59;;;;;;;9.80;6.45;;;;;;;;;;4991589;28;20554;-83
2021/10/26 18:20:27;;;;;;;9.43;6.72;;;;;;;;;;5000197;28;20065;-82
2021/10/26 18:22:55;;;;;;;11.98;7.90;;;;;;;;;;5004941;28;20563;-83
2021/10/26 18:25:22;;;;;;;11.18;7.75;;;;;;;;;;5007207;28;20050;-83
2021/10/26 18:27:53;;;;;;;16.48;9.57;;;;;;;;;;4988898;28;20088;-83
2021/10/26 18:30:21;;;;;;;15.38;10.07;;;;;;;;;;4989107;28;20509;-83
2021/10/26 18:32:51;;;;;;;25.80;17.40;;;;;;;;;;4998340;28;20042;-83
2021/10/26 18:35:19;;;;;;;15.57;10.60;;;;;;;;;;4995788;28;20042;-84
2021/10/26 18:37:46;;;;;;;15.93;9.50;;;;;;;;;;5005485;28;20076;-84
2021/10/26 18:55:13;;;;;;;16.75;10.38;;;;;;;;;;4979604;28;20085;-86
2021/10/26 18:58:13;;;;;;;16.27;9.55;;;;;;;;;;4963130;28;20061;-87
2021/10/26 19:47:17;;;;;;;13.65;8.48;;;;;;;;;;5077558;23;20365;-89
2021/10/26 19:50:27;;;;;;;;;;;;;;;;;;;;;
2021/10/26 20:30:36;;;;;;;14.80;9.83;;;;;;;;;;4972679;28;20133;-90
2021/10/26 20:49:37;;;;;;;13.18;7.95;;;;;;;;;;4951449;28;20553;-89
2021/10/26 20:52:15;;;;;;;14.00;9.27;;;;;;;;;;5053524;28;20127;-89
2021/10/26 20:55:30;;;;;;;;;;;;;;;;;;;;;
2021/10/26 21:04:33;;;;;;;;;;;;;;;;;;;;;
2021/10/26 21:10:43;;;;;;;12.88;9.95;;;;;;;;;;5033237;28;20059;-90
2021/10/26 21:17:25;;;;;;;;;;;;;;;;;;;;;
2021/10/26 21:20:30;;;;;;;16.85;11.77;;;;;;;;;;5055823;28;20068;-90
2021/10/26 21:30:23;;;;;;;19.45;12.18;;;;;;;;;;5011423;28;20048;-89
